createdAt,value
2022-08-17T00:02:26.330Z,97.00
2022-08-17T00:04:55.474Z,97.20
2022-08-17T00:07:23.280Z,97.20
2022-08-17T00:09:50.666Z,97.20
2022-08-17T00:12:42.787Z,97.30
2022-08-17T00:15:10.497Z,97.40
2022-08-17T00:17:38.461Z,97.40
2022-08-17T00:20:06.526Z,97.40
2022-08-17T00:22:36.334Z,97.60
2022-08-17T00:25:13.234Z,97.60
2022-08-17T00:27:41.187Z,97.70
2022-08-17T00:30:11.514Z,97.70
2022-08-17T00:33:12.069Z,97.70
2022-08-17T00:35:32.486Z,97.50
2022-08-17T00:37:59.834Z,97.70
2022-08-17T00:40:40.846Z,97.80
2022-08-17T00:43:37.527Z,97.80
2022-08-17T00:46:12.727Z,98.00
2022-08-17T00:48:41.429Z,98.00
2022-08-17T00:51:27.367Z,98.10
2022-08-17T00:54:16.116Z,98.10
2022-08-17T00:57:02.936Z,98.20
2022-08-17T00:59:35.479Z,98.40
2022-08-17T01:02:04.049Z,98.40
2022-08-17T01:04:33.718Z,98.60
2022-08-17T01:07:03.748Z,98.60
2022-08-17T01:09:31.612Z,98.80
2022-08-17T01:11:58.960Z,99.00
2022-08-17T01:14:27.136Z,99.20
2022-08-17T01:16:57.503Z,99.20
2022-08-17T01:19:36.929Z,99.30
2022-08-17T01:22:11.730Z,99.50
2022-08-17T01:24:42.804Z,99.50
2022-08-17T01:27:12.170Z,99.70
2022-08-17T01:29:42.417Z,99.70
2022-08-17T01:32:10.597Z,99.90
2022-08-17T01:34:43.562Z,99.90
2022-08-17T01:37:13.951Z,99.90
2022-08-17T01:39:49.607Z,99.80
2022-08-17T01:42:41.253Z,99.80
2022-08-17T01:45:28.157Z,99.90
2022-08-17T01:47:56.268Z,99.90
2022-08-17T01:50:27.806Z,99.90
2022-08-17T01:53:00.126Z,99.90
2022-08-17T01:55:33.803Z,99.90
2022-08-17T01:58:02.095Z,99.90
2022-08-17T02:00:29.615Z,99.90
2022-08-17T02:03:17.393Z,99.90
2022-08-17T02:05:45.199Z,99.90
2022-08-17T02:08:20.159Z,99.90
2022-08-17T02:10:49.263Z,99.90
2022-08-17T02:13:17.124Z,99.90
2022-08-17T02:15:46.498Z,99.90
2022-08-17T02:18:15.355Z,99.90
2022-08-17T02:20:43.003Z,99.90
2022-08-17T02:23:12.859Z,99.90
2022-08-17T02:25:42.314Z,99.90
2022-08-17T02:28:10.240Z,99.90
2022-08-17T02:31:01.021Z,99.90
2022-08-17T02:33:25.094Z,99.90
2022-08-17T02:36:12.235Z,99.90
2022-08-17T02:38:40.786Z,99.90
2022-08-17T02:41:09.700Z,99.90
2022-08-17T02:43:36.951Z,99.90
2022-08-17T02:46:04.318Z,99.90
2022-08-17T02:48:32.122Z,99.90
2022-08-17T02:51:00.984Z,99.90
2022-08-17T02:53:33.665Z,99.90
2022-08-17T02:56:03.791Z,99.90
2022-08-17T02:58:35.661Z,99.90
2022-08-17T03:01:07.293Z,99.90
2022-08-17T03:03:36.277Z,99.90
2022-08-17T03:06:04.788Z,99.90
2022-08-17T03:08:32.283Z,99.90
2022-08-17T03:10:59.935Z,99.90
2022-08-17T03:13:27.868Z,99.90
2022-08-17T03:15:55.126Z,99.90
2022-08-17T03:18:24.547Z,99.90
2022-08-17T03:20:58.562Z,99.90
2022-08-17T03:23:27.394Z,99.90
2022-08-17T03:25:55.762Z,99.90
2022-08-17T03:28:23.949Z,99.90
2022-08-17T03:30:52.363Z,99.90
2022-08-17T03:33:21.768Z,99.90
2022-08-17T03:35:49.682Z,99.90
2022-08-17T03:38:17.582Z,99.90
2022-08-17T03:40:57.442Z,99.90
2022-08-17T03:43:29.224Z,99.90
2022-08-17T03:46:28.660Z,99.90
2022-08-17T03:49:21.867Z,99.90
2022-08-17T03:52:07.427Z,99.90
2022-08-17T03:54:53.305Z,99.90
2022-08-17T03:57:20.651Z,99.90
2022-08-17T03:59:48.259Z,99.90
2022-08-17T04:02:22.616Z,99.90
2022-08-17T04:04:51.236Z,99.90
2022-08-17T04:07:23.278Z,99.90
2022-08-17T04:09:51.046Z,99.90
2022-08-17T04:12:20.688Z,99.90
2022-08-17T04:14:53.088Z,99.90
2022-08-17T04:17:24.415Z,99.90
2022-08-17T04:19:52.555Z,99.90
2022-08-17T04:22:32.421Z,99.90
2022-08-17T04:25:17.754Z,99.90
2022-08-17T04:27:45.011Z,99.90
2022-08-17T04:30:13.043Z,99.90
2022-08-17T04:33:06.776Z,99.90
2022-08-17T04:35:45.108Z,99.90
2022-08-17T04:38:15.617Z,99.90
2022-08-17T04:41:04.207Z,99.90
2022-08-17T04:43:40.339Z,99.90
2022-08-17T04:46:10.757Z,99.90
2022-08-17T04:48:44.698Z,99.90
2022-08-17T04:51:30.630Z,99.90
2022-08-17T04:54:01.724Z,99.90
2022-08-17T04:56:30.975Z,99.90
2022-08-17T04:59:01.170Z,99.90
2022-08-17T05:01:30.724Z,99.90
2022-08-17T05:04:21.389Z,99.90
2022-08-17T05:06:50.091Z,99.90
2022-08-17T05:09:18.182Z,99.90
2022-08-17T05:11:47.253Z,99.90
2022-08-17T05:14:14.378Z,99.90
2022-08-17T05:16:41.782Z,99.90
2022-08-17T05:19:08.885Z,99.90
2022-08-17T05:21:36.009Z,99.90
2022-08-17T05:24:06.079Z,99.90
2022-08-17T05:26:47.294Z,99.90
2022-08-17T05:29:16.578Z,99.90
2022-08-17T05:31:43.622Z,99.90
2022-08-17T05:34:11.611Z,99.90
2022-08-17T05:36:44.038Z,99.90
2022-08-17T05:39:16.424Z,99.90
2022-08-17T05:41:48.434Z,99.90
2022-08-17T05:44:16.173Z,99.90
2022-08-17T05:46:50.463Z,99.90
2022-08-17T05:49:23.818Z,99.90
2022-08-17T05:52:05.686Z,99.90
2022-08-17T05:55:01.449Z,99.90
2022-08-17T05:57:56.129Z,99.90
2022-08-17T06:00:31.513Z,99.90
2022-08-17T06:03:33.476Z,99.90
2022-08-17T06:06:01.616Z,99.90
2022-08-17T06:08:48.270Z,99.90
2022-08-17T06:11:53.298Z,99.90
2022-08-17T06:15:03.639Z,99.90
2022-08-17T06:17:31.677Z,99.90
2022-08-17T06:20:06.102Z,99.90
2022-08-17T06:22:40.301Z,99.90
2022-08-17T06:25:13.026Z,99.90
2022-08-17T06:28:09.080Z,99.90
2022-08-17T06:30:59.855Z,99.90
2022-08-17T06:33:37.650Z,99.90
2022-08-17T06:36:40.384Z,99.90
2022-08-17T06:39:46.335Z,99.90
2022-08-17T06:43:00.850Z,99.90
2022-08-17T06:45:31.439Z,99.90
2022-08-17T06:48:13.176Z,99.90
2022-08-17T06:50:45.957Z,99.90
2022-08-17T06:53:24.646Z,99.90
2022-08-17T06:56:10.226Z,99.90
2022-08-17T06:58:40.200Z,99.90
2022-08-17T07:01:15.558Z,99.90
2022-08-17T07:04:18.365Z,99.90
2022-08-17T07:06:53.327Z,99.90
2022-08-17T07:09:28.707Z,99.90
2022-08-17T07:12:10.251Z,99.90
2022-08-17T07:14:44.115Z,99.90
2022-08-17T07:17:15.725Z,99.90
2022-08-17T07:19:46.167Z,99.90
2022-08-17T07:22:57.272Z,99.90
2022-08-17T07:25:24.875Z,99.80
2022-08-17T07:28:00.686Z,99.90
2022-08-17T07:30:45.677Z,99.90
2022-08-17T07:33:20.312Z,99.90
2022-08-17T07:35:49.956Z,99.90
2022-08-17T07:38:26.963Z,99.90
2022-08-17T07:41:03.542Z,99.50
2022-08-17T07:43:39.936Z,99.90
2022-08-17T07:46:37.659Z,99.90
2022-08-17T07:49:07.694Z,99.90
2022-08-17T07:51:48.089Z,99.90
2022-08-17T07:54:23.646Z,99.90
2022-08-17T07:56:54.261Z,99.90
2022-08-17T07:59:24.349Z,99.90
2022-08-17T08:02:01.273Z,99.90
2022-08-17T08:05:00.679Z,99.90
2022-08-17T08:07:38.310Z,99.90
2022-08-17T08:10:32.430Z,99.80
2022-08-17T08:13:06.492Z,99.90
2022-08-17T08:15:53.458Z,99.60
2022-08-17T08:18:53.673Z,99.80
2022-08-17T08:21:31.215Z,99.70
2022-08-17T08:24:20.115Z,99.30
2022-08-17T08:27:02.225Z,99.20
2022-08-17T08:29:38.131Z,99.00
2022-08-17T08:32:50.289Z,99.60
2022-08-17T08:35:23.879Z,99.10
2022-08-17T08:38:31.054Z,99.40
2022-08-17T08:41:26.604Z,99.70
2022-08-17T08:45:00.922Z,99.90
2022-08-17T08:47:41.733Z,99.90
2022-08-17T08:50:37.209Z,99.90
2022-08-17T08:53:24.224Z,99.90
2022-08-17T08:56:05.775Z,99.90
2022-08-17T08:58:56.301Z,99.90
2022-08-17T09:01:38.247Z,99.90
2022-08-17T09:05:10.670Z,99.90
2022-08-17T09:08:02.552Z,99.90
2022-08-17T09:10:34.926Z,99.90
2022-08-17T09:13:10.109Z,99.90
2022-08-17T09:15:48.287Z,99.90
2022-08-17T09:19:02.528Z,99.90
2022-08-17T09:21:55.717Z,99.90
2022-08-17T09:24:33.733Z,99.90
2022-08-17T09:27:18.759Z,99.90
2022-08-17T09:29:51.723Z,99.90
2022-08-17T09:32:28.750Z,99.90
2022-08-17T09:35:02.123Z,99.90
2022-08-17T09:37:43.192Z,99.90
2022-08-17T09:40:24.383Z,99.90
2022-08-17T09:43:10.218Z,99.90
2022-08-17T09:45:57.464Z,99.90
2022-08-17T09:48:37.646Z,99.90
2022-08-17T09:51:40.877Z,99.90
2022-08-17T09:54:39.926Z,99.90
2022-08-17T09:57:31.002Z,99.90
2022-08-17T10:00:09.434Z,99.90
2022-08-17T10:03:16.247Z,99.90
2022-08-17T10:05:56.504Z,99.90
2022-08-17T10:08:35.795Z,99.90
2022-08-17T10:11:51.499Z,99.90
2022-08-17T10:15:08.065Z,99.90
2022-08-17T10:18:24.737Z,99.90
2022-08-17T10:21:31.021Z,99.90
2022-08-17T10:24:39.579Z,99.90
2022-08-17T10:27:55.384Z,99.90
2022-08-17T10:30:26.844Z,99.90
2022-08-17T10:32:59.379Z,99.90
2022-08-17T10:35:47.015Z,99.90
2022-08-17T10:38:37.532Z,99.90
2022-08-17T10:41:40.873Z,99.90
2022-08-17T10:44:41.416Z,99.90
2022-08-17T10:47:14.619Z,99.90
2022-08-17T10:49:49.755Z,99.90
2022-08-17T10:52:24.975Z,99.90
2022-08-17T10:54:58.040Z,99.90
2022-08-17T10:57:34.812Z,99.90
2022-08-17T11:00:08.951Z,99.90
2022-08-17T11:02:49.623Z,99.90
2022-08-17T11:05:42.979Z,99.90
2022-08-17T11:08:40.014Z,99.90
2022-08-17T11:11:34.614Z,99.90
2022-08-17T11:14:28.133Z,99.90
2022-08-17T11:17:06.897Z,99.90
2022-08-17T11:19:52.649Z,99.90
2022-08-17T11:22:59.219Z,99.90
2022-08-17T11:25:47.325Z,99.90
2022-08-17T11:28:17.426Z,99.90
2022-08-17T11:31:10.422Z,99.70
2022-08-17T11:33:44.789Z,99.90
2022-08-17T11:36:42.270Z,99.90
2022-08-17T11:39:30.138Z,99.90
2022-08-17T11:42:30.048Z,99.80
2022-08-17T11:45:31.570Z,99.40
2022-08-17T11:48:38.353Z,99.80
2022-08-17T11:51:35.526Z,99.60
2022-08-17T11:57:21.714Z,99.10
2022-08-17T11:59:48.691Z,99.10
2022-08-17T12:02:35.226Z,98.60
2022-08-17T12:05:17.097Z,98.00
2022-08-17T12:08:05.632Z,98.40
2022-08-17T12:10:35.842Z,98.60
2022-08-17T12:13:15.860Z,98.10
2022-08-17T12:15:48.878Z,97.40
2022-08-17T12:18:39.632Z,96.90
2022-08-17T12:21:25.045Z,97.40
2022-08-17T12:24:25.327Z,96.60
2022-08-17T12:26:56.179Z,97.00
2022-08-17T12:29:38.747Z,97.40
2022-08-17T12:32:13.087Z,96.30
2022-08-17T12:34:42.757Z,95.80
2022-08-17T12:37:20.969Z,95.80
2022-08-17T12:40:05.056Z,95.50
2022-08-17T12:42:37.408Z,95.80
2022-08-17T12:45:22.413Z,95.60
2022-08-17T12:47:51.409Z,94.90
2022-08-17T12:50:29.239Z,94.80
2022-08-17T12:53:01.975Z,94.00
2022-08-17T12:55:36.367Z,93.50
2022-08-17T12:58:03.607Z,94.30
2022-08-17T13:00:47.820Z,94.20
2022-08-17T13:03:24.792Z,93.90
2022-08-17T13:06:09.261Z,92.40
2022-08-17T13:08:38.207Z,93.30
2022-08-17T13:11:24.988Z,92.40
2022-08-17T13:13:56.197Z,92.10
2022-08-17T13:16:30.330Z,92.70
2022-08-17T13:19:08.649Z,92.50
2022-08-17T13:21:38.009Z,92.60
2022-08-17T13:24:11.557Z,92.50
2022-08-17T13:26:40.510Z,93.40
2022-08-17T13:29:31.867Z,93.80
2022-08-17T13:32:09.060Z,94.70
2022-08-17T13:35:15.378Z,93.70
2022-08-17T13:37:45.396Z,93.00
2022-08-17T13:40:12.463Z,92.80
2022-08-17T13:42:51.935Z,92.50
2022-08-17T13:45:36.257Z,93.00
2022-08-17T13:48:27.066Z,92.60
2022-08-17T13:50:57.121Z,92.60
2022-08-17T13:53:24.146Z,92.10
2022-08-17T13:55:55.462Z,92.40
2022-08-17T13:58:34.689Z,93.20
2022-08-17T14:01:35.426Z,92.50
2022-08-17T14:04:06.030Z,92.80
2022-08-17T14:06:53.370Z,93.30
2022-08-17T14:09:24.644Z,93.70
2022-08-17T14:11:53.024Z,93.90
2022-08-17T14:14:22.442Z,93.30
2022-08-17T14:16:50.905Z,93.60
2022-08-17T14:19:18.293Z,93.00
2022-08-17T14:21:46.949Z,93.30
2022-08-17T14:24:24.483Z,93.30
2022-08-17T14:26:53.109Z,93.30
2022-08-17T14:29:25.212Z,93.60
2022-08-17T14:31:54.511Z,93.50
2022-08-17T14:34:22.983Z,93.70
2022-08-17T14:36:50.189Z,93.90
2022-08-17T14:39:18.604Z,94.80
2022-08-17T14:41:46.462Z,95.20
2022-08-17T14:44:13.839Z,95.60
2022-08-17T14:46:42.979Z,95.60
2022-08-17T14:49:12.508Z,96.00
2022-08-17T14:51:43.961Z,96.30
2022-08-17T14:54:32.868Z,96.30
2022-08-17T14:57:23.313Z,95.30
2022-08-17T14:59:55.080Z,95.30
2022-08-17T15:02:29.847Z,94.70
2022-08-17T15:05:04.216Z,94.20
2022-08-17T15:07:31.794Z,94.50
2022-08-17T15:10:02.462Z,95.60
2022-08-17T15:12:34.694Z,96.00
2022-08-17T15:15:05.303Z,96.20
2022-08-17T15:17:44.316Z,96.40
2022-08-17T15:20:25.445Z,97.10
2022-08-17T15:22:56.238Z,95.90
2022-08-17T15:25:27.907Z,95.70
2022-08-17T15:27:56.096Z,96.30
2022-08-17T15:30:24.767Z,96.20
2022-08-17T15:32:55.005Z,96.30
2022-08-17T15:35:28.352Z,96.80
2022-08-17T15:38:11.292Z,96.80
2022-08-17T15:40:45.570Z,96.40
2022-08-17T15:43:27.906Z,95.30
2022-08-17T15:46:02.379Z,95.40
2022-08-17T15:48:41.885Z,95.20
2022-08-17T15:51:14.140Z,94.70
2022-08-17T15:53:43.658Z,94.80
2022-08-17T15:56:11.383Z,95.10
2022-08-17T15:58:38.696Z,94.90
2022-08-17T16:01:14.792Z,95.30
2022-08-17T16:04:04.191Z,95.10
2022-08-17T16:06:31.999Z,94.60
2022-08-17T16:09:00.379Z,95.10
2022-08-17T16:11:27.456Z,95.30
2022-08-17T16:13:56.032Z,95.20
2022-08-17T16:16:23.876Z,95.20
2022-08-17T16:18:54.711Z,94.90
2022-08-17T16:21:27.155Z,95.20
2022-08-17T16:23:58.922Z,95.30
2022-08-17T16:26:27.505Z,95.60
2022-08-17T16:28:55.963Z,95.20
2022-08-17T16:31:23.501Z,95.30
2022-08-17T16:34:16.210Z,94.90
2022-08-17T16:36:38.746Z,95.70
2022-08-17T16:39:06.175Z,96.20
2022-08-17T16:41:45.477Z,96.20
2022-08-17T16:44:17.443Z,96.90
2022-08-17T16:46:46.157Z,97.40
2022-08-17T16:49:35.384Z,97.60
2022-08-17T16:52:03.202Z,97.80
2022-08-17T16:54:30.454Z,98.40
2022-08-17T16:56:57.463Z,98.60
2022-08-17T16:59:29.936Z,98.60
2022-08-17T17:02:04.909Z,98.70
2022-08-17T17:04:35.179Z,98.60
2022-08-17T17:07:34.004Z,98.30
2022-08-17T17:10:12.572Z,98.40
2022-08-17T17:13:01.395Z,98.60
2022-08-17T17:15:39.621Z,98.80
2022-08-17T17:18:12.913Z,98.80
2022-08-17T17:20:55.058Z,98.50
2022-08-17T17:23:38.382Z,98.60
2022-08-17T17:26:26.345Z,98.80
2022-08-17T17:29:03.954Z,98.80
2022-08-17T17:31:41.240Z,99.00
2022-08-17T17:34:10.239Z,99.20
2022-08-17T17:36:59.678Z,99.40
2022-08-17T17:39:43.581Z,99.80
2022-08-17T17:42:20.204Z,99.90
2022-08-17T17:45:06.832Z,99.90
2022-08-17T17:47:34.588Z,99.90
2022-08-17T17:50:03.581Z,99.90
2022-08-17T17:53:03.790Z,99.90
2022-08-17T17:55:34.014Z,99.90
2022-08-17T17:58:27.425Z,99.90
2022-08-17T18:01:19.467Z,99.90
2022-08-17T18:04:17.657Z,99.90
2022-08-17T18:06:56.189Z,99.90
2022-08-17T18:10:02.657Z,99.90
2022-08-17T18:12:51.489Z,99.90
2022-08-17T18:15:24.414Z,99.90
2022-08-17T18:18:33.271Z,99.90
2022-08-17T18:21:06.987Z,99.90
2022-08-17T18:23:34.720Z,99.90
2022-08-17T18:26:02.595Z,99.90
2022-08-17T18:28:44.247Z,99.90
2022-08-17T18:31:19.048Z,99.90
2022-08-17T18:33:50.107Z,99.90
2022-08-17T18:36:33.085Z,99.90
2022-08-17T18:39:25.333Z,99.90
2022-08-17T18:41:56.067Z,99.90
2022-08-17T18:44:32.968Z,99.90
2022-08-17T18:47:16.938Z,99.90
2022-08-17T18:49:47.019Z,99.90
2022-08-17T18:52:21.877Z,99.90
2022-08-17T18:55:03.161Z,99.90
2022-08-17T18:57:45.676Z,99.90
2022-08-17T19:00:14.871Z,99.90
2022-08-17T19:02:56.355Z,99.90
2022-08-17T19:05:28.975Z,99.90
2022-08-17T19:08:17.931Z,99.90
2022-08-17T19:10:47.738Z,99.90
2022-08-17T19:13:45.467Z,99.90
2022-08-17T19:16:21.797Z,99.90
2022-08-17T19:18:56.909Z,99.90
2022-08-17T19:21:41.804Z,99.90
2022-08-17T19:24:19.985Z,99.90
2022-08-17T19:26:59.852Z,99.90
2022-08-17T19:29:42.392Z,99.90
2022-08-17T19:32:11.304Z,99.90
2022-08-17T19:34:43.739Z,99.90
2022-08-17T19:37:49.975Z,99.90
2022-08-17T19:40:51.769Z,99.90
2022-08-17T19:43:38.165Z,99.90
2022-08-17T19:46:29.674Z,99.90
2022-08-17T19:49:14.786Z,99.90
2022-08-17T19:51:51.697Z,99.90
2022-08-17T19:54:28.782Z,99.90
2022-08-17T19:57:03.272Z,99.90
2022-08-17T20:00:08.577Z,99.90
2022-08-17T20:02:48.131Z,99.90
2022-08-17T20:05:15.440Z,99.90
2022-08-17T20:08:16.125Z,99.90
2022-08-17T20:10:56.225Z,99.90
2022-08-17T20:13:37.099Z,99.90
2022-08-17T20:16:05.389Z,99.90
2022-08-17T20:18:37.982Z,99.90
2022-08-17T20:21:39.145Z,99.90
2022-08-17T20:24:35.196Z,99.90
2022-08-17T20:27:18.803Z,99.90
2022-08-17T20:30:10.593Z,99.90
2022-08-17T20:32:58.510Z,99.90
2022-08-17T20:35:30.570Z,99.90
2022-08-17T20:38:02.533Z,99.90
2022-08-17T20:40:39.804Z,99.90
2022-08-17T20:43:33.108Z,99.90
2022-08-17T20:46:19.086Z,99.90
2022-08-17T20:48:50.887Z,99.90
2022-08-17T20:51:54.564Z,99.90
2022-08-17T20:54:47.981Z,99.90
2022-08-17T20:57:33.841Z,99.90
2022-08-17T21:00:29.713Z,99.90
2022-08-17T21:03:26.849Z,99.90
2022-08-17T21:06:00.375Z,99.90
2022-08-17T21:08:59.439Z,99.90
2022-08-17T21:12:03.187Z,99.90
2022-08-17T21:14:24.750Z,99.90
2022-08-17T21:17:24.726Z,99.90
2022-08-17T21:20:33.829Z,99.90
2022-08-17T21:23:25.845Z,99.90
2022-08-17T21:26:05.086Z,99.90
2022-08-17T21:29:01.056Z,99.90
2022-08-17T21:31:32.092Z,99.90
2022-08-17T21:34:17.072Z,99.90
2022-08-17T21:36:45.381Z,99.90
2022-08-17T21:39:15.884Z,99.90
2022-08-17T21:41:53.160Z,99.90
2022-08-17T21:44:29.179Z,99.90
2022-08-17T21:47:16.068Z,99.90
2022-08-17T21:49:43.811Z,99.90
2022-08-17T21:52:15.439Z,99.90
2022-08-17T21:55:00.619Z,99.90
2022-08-17T21:57:29.266Z,99.90
2022-08-17T22:00:02.233Z,99.90
2022-08-17T22:02:35.316Z,99.90
2022-08-17T22:05:05.818Z,99.90
2022-08-17T22:07:42.843Z,99.90
2022-08-17T22:10:37.258Z,99.90
2022-08-17T22:13:16.458Z,99.90
2022-08-17T22:15:47.501Z,99.90
2022-08-17T22:18:25.551Z,99.90
2022-08-17T22:20:55.806Z,99.90
2022-08-17T22:23:47.103Z,99.90
2022-08-17T22:26:17.369Z,99.90
2022-08-17T22:28:51.075Z,99.90
2022-08-17T22:31:22.620Z,99.90
2022-08-17T22:33:52.447Z,99.90
2022-08-17T22:36:37.801Z,99.90
2022-08-17T22:39:13.088Z,99.90
2022-08-17T22:41:51.320Z,99.90
2022-08-17T22:44:38.022Z,99.90
2022-08-17T22:47:31.271Z,99.90
2022-08-17T22:50:04.927Z,99.90
2022-08-17T22:53:09.278Z,99.90
2022-08-17T22:55:54.836Z,99.90
2022-08-17T22:58:43.111Z,99.90
2022-08-17T23:01:32.938Z,99.90
2022-08-17T23:04:04.435Z,99.90
2022-08-17T23:06:35.351Z,99.90
2022-08-17T23:09:04.459Z,99.90
2022-08-17T23:11:50.583Z,99.90
2022-08-17T23:14:20.142Z,99.90
2022-08-17T23:16:49.258Z,99.90
2022-08-17T23:19:20.645Z,99.90
2022-08-17T23:21:52.719Z,99.90
2022-08-17T23:24:32.086Z,99.90
2022-08-17T23:26:59.457Z,99.90
2022-08-17T23:29:29.727Z,99.90
2022-08-17T23:32:00.192Z,99.90
2022-08-17T23:34:28.519Z,99.90
2022-08-17T23:36:56.359Z,99.90
2022-08-17T23:39:28.039Z,99.90
2022-08-17T23:42:01.740Z,99.90
2022-08-17T23:44:30.228Z,99.90
2022-08-17T23:46:57.691Z,99.90
2022-08-17T23:49:25.350Z,99.90
2022-08-17T23:51:55.563Z,99.90
2022-08-17T23:54:34.500Z,99.90
2022-08-17T23:57:04.207Z,99.90
2022-08-17T23:59:33.959Z,99.90
